createdAt,value
2023-05-15T00:00:45.176Z,12.89
2023-05-15T00:03:47.179Z,12.89
2023-05-15T00:06:49.298Z,12.94
2023-05-15T00:09:51.251Z,12.94
2023-05-15T00:12:53.199Z,13.03
2023-05-15T00:15:56.715Z,13.05
2023-05-15T00:19:01.524Z,13.20
2023-05-15T00:22:03.536Z,13.32
2023-05-15T00:25:06.393Z,13.42
2023-05-15T00:28:08.252Z,13.50
2023-05-15T00:31:13.225Z,13.42
2023-05-15T00:34:15.157Z,13.43
2023-05-15T00:37:17.058Z,13.55
2023-05-15T00:40:21.401Z,13.45
2023-05-15T00:43:25.940Z,13.45
2023-05-15T00:46:31.981Z,13.46
2023-05-15T00:49:35.875Z,13.25
2023-05-15T00:52:38.259Z,13.06
2023-05-15T00:55:42.481Z,13.31
2023-05-15T00:58:47.621Z,13.44
2023-05-15T01:01:51.159Z,13.24
2023-05-15T01:04:53.117Z,13.48
2023-05-15T01:08:01.311Z,13.50
2023-05-15T01:11:05.820Z,13.28
2023-05-15T01:14:08.882Z,13.44
2023-05-15T01:17:12.202Z,13.07
2023-05-15T01:20:18.745Z,13.46
2023-05-15T01:23:32.507Z,13.32
2023-05-15T01:27:16.054Z,13.56
2023-05-15T01:30:23.623Z,13.55
2023-05-15T01:33:29.741Z,13.49
2023-05-15T01:36:37.838Z,13.18
2023-05-15T01:39:42.673Z,13.40
2023-05-15T01:42:54.064Z,13.43
2023-05-15T01:45:58.929Z,13.41
2023-05-15T01:49:03.374Z,13.07
2023-05-15T01:52:08.930Z,13.33
2023-05-15T01:55:11.059Z,13.51
2023-05-15T01:58:15.850Z,13.52
2023-05-15T02:01:19.599Z,13.12
2023-05-15T02:04:22.552Z,13.22
2023-05-15T02:07:27.987Z,13.22
2023-05-15T02:10:32.023Z,13.28
2023-05-15T02:13:36.428Z,13.50
2023-05-15T02:16:38.848Z,13.53
2023-05-15T02:19:40.784Z,13.57
2023-05-15T02:22:45.178Z,13.43
2023-05-15T02:26:01.324Z,13.59
2023-05-15T02:29:13.884Z,13.36
2023-05-15T02:32:22.826Z,13.58
2023-05-15T02:35:36.264Z,13.49
2023-05-15T02:38:44.747Z,13.55
2023-05-15T02:41:47.985Z,13.54
2023-05-15T02:44:53.698Z,13.46
2023-05-15T02:47:58.521Z,13.28
2023-05-15T02:51:00.952Z,13.54
2023-05-15T02:54:03.203Z,13.33
2023-05-15T02:57:05.614Z,13.60
2023-05-15T03:00:13.492Z,13.39
2023-05-15T03:03:15.506Z,13.37
2023-05-15T03:06:18.768Z,13.35
2023-05-15T03:09:21.132Z,13.43
2023-05-15T03:12:23.029Z,13.34
2023-05-15T03:15:26.810Z,13.56
2023-05-15T03:18:29.149Z,13.37
2023-05-15T03:21:31.806Z,13.53
2023-05-15T03:24:33.652Z,13.56
2023-05-15T03:27:36.167Z,13.56
2023-05-15T03:30:39.431Z,13.31
2023-05-15T03:33:41.911Z,13.58
2023-05-15T03:36:46.704Z,13.15
2023-05-15T03:39:48.642Z,13.20
2023-05-15T03:42:53.565Z,13.39
2023-05-15T03:45:57.011Z,13.55
2023-05-15T03:48:59.125Z,13.37
2023-05-15T03:52:01.226Z,13.36
2023-05-15T03:55:03.494Z,13.40
2023-05-15T03:58:05.748Z,13.17
2023-05-15T04:01:08.970Z,13.56
2023-05-15T04:04:10.860Z,13.43
2023-05-15T04:07:12.765Z,13.41
2023-05-15T04:10:14.674Z,13.26
2023-05-15T04:13:16.847Z,13.44
2023-05-15T04:16:20.296Z,13.55
2023-05-15T04:19:22.351Z,13.64
2023-05-15T04:22:24.434Z,13.61
2023-05-15T04:25:27.437Z,13.66
2023-05-15T04:28:30.558Z,13.55
2023-05-15T04:31:35.362Z,13.70
2023-05-15T04:34:37.432Z,13.76
2023-05-15T04:37:40.075Z,13.79
2023-05-15T04:40:42.098Z,13.79
2023-05-15T04:43:43.996Z,13.81
2023-05-15T04:46:47.577Z,13.65
2023-05-15T04:49:50.259Z,13.50
2023-05-15T04:52:52.333Z,13.42
2023-05-15T04:55:54.405Z,13.42
2023-05-15T04:58:59.396Z,13.88
2023-05-15T05:02:03.505Z,13.68
2023-05-15T05:05:06.412Z,13.81
2023-05-15T05:08:08.356Z,13.74
2023-05-15T05:11:10.427Z,13.55
2023-05-15T05:14:13.494Z,13.91
2023-05-15T05:17:17.123Z,13.68
2023-05-15T05:20:19.290Z,13.75
2023-05-15T05:23:21.230Z,13.66
2023-05-15T05:26:23.108Z,13.66
2023-05-15T05:29:25.309Z,13.63
2023-05-15T05:32:28.675Z,13.67
2023-05-15T05:35:30.839Z,13.76
2023-05-15T05:38:33.178Z,13.73
2023-05-15T05:41:35.089Z,13.87
2023-05-15T05:44:37.014Z,13.76
2023-05-15T05:47:40.535Z,14.07
2023-05-15T05:50:42.487Z,14.15
2023-05-15T05:53:44.366Z,13.97
2023-05-15T05:56:46.348Z,14.14
2023-05-15T05:59:49.876Z,14.02
2023-05-15T06:02:56.466Z,13.34
2023-05-15T06:05:58.709Z,12.95
2023-05-15T06:09:00.731Z,12.89
2023-05-15T06:12:04.957Z,12.69
2023-05-15T06:15:07.983Z,12.74
2023-05-15T06:18:11.343Z,12.97
2023-05-15T06:21:13.364Z,12.97
2023-05-15T06:24:15.292Z,12.94
2023-05-15T06:27:17.227Z,12.69
2023-05-15T06:30:19.176Z,12.77
2023-05-15T06:33:22.421Z,13.33
2023-05-15T06:36:24.441Z,13.79
2023-05-15T06:39:26.556Z,14.41
2023-05-15T06:42:28.522Z,14.36
2023-05-15T06:45:30.498Z,14.35
2023-05-15T06:48:33.819Z,14.67
2023-05-15T06:51:35.733Z,14.81
2023-05-15T06:54:37.804Z,14.78
2023-05-15T06:57:39.743Z,14.65
2023-05-15T07:00:44.436Z,15.18
2023-05-15T07:03:47.792Z,14.06
2023-05-15T07:06:49.681Z,13.67
2023-05-15T07:09:52.113Z,13.58
2023-05-15T07:12:54.084Z,13.62
2023-05-15T07:15:55.968Z,13.75
2023-05-15T07:19:01.104Z,13.89
2023-05-15T07:22:03.570Z,13.85
2023-05-15T07:25:06.687Z,13.83
2023-05-15T07:28:08.652Z,13.71
2023-05-15T07:31:10.922Z,14.01
2023-05-15T07:34:14.256Z,13.79
2023-05-15T07:37:16.966Z,13.85
2023-05-15T07:40:19.074Z,14.32
2023-05-15T07:43:21.018Z,14.10
2023-05-15T07:46:23.042Z,14.29
2023-05-15T07:49:26.904Z,14.55
2023-05-15T07:52:28.947Z,14.13
2023-05-15T07:55:30.917Z,14.56
2023-05-15T07:58:35.573Z,14.72
2023-05-15T08:01:37.462Z,14.41
2023-05-15T08:04:41.444Z,14.72
2023-05-15T08:07:43.499Z,14.40
2023-05-15T08:10:45.409Z,14.52
2023-05-15T08:13:47.430Z,14.49
2023-05-15T08:16:50.432Z,14.91
2023-05-15T08:19:54.036Z,14.81
2023-05-15T08:22:55.982Z,14.90
2023-05-15T08:25:58.005Z,15.27
2023-05-15T08:28:59.935Z,15.89
2023-05-15T08:32:02.079Z,15.84
2023-05-15T08:35:06.448Z,15.84
2023-05-15T08:38:08.540Z,15.30
2023-05-15T08:41:25.907Z,15.65
2023-05-15T08:44:35.393Z,15.67
2023-05-15T08:47:40.708Z,16.54
2023-05-15T08:50:44.760Z,16.37
2023-05-15T08:53:47.166Z,16.50
2023-05-15T08:56:49.374Z,16.43
2023-05-15T08:59:52.953Z,16.79
2023-05-15T09:02:54.981Z,16.75
2023-05-15T09:05:59.280Z,16.67
2023-05-15T09:09:03.930Z,17.20
2023-05-15T09:12:10.220Z,17.47
2023-05-15T09:15:14.169Z,16.83
2023-05-15T09:18:17.194Z,16.40
2023-05-15T09:21:27.851Z,16.20
2023-05-15T09:24:31.688Z,16.48
2023-05-15T09:27:43.037Z,16.26
2023-05-15T09:30:45.066Z,16.08
2023-05-15T09:33:47.092Z,15.98
2023-05-15T09:36:50.597Z,16.39
2023-05-15T09:39:52.605Z,16.17
2023-05-15T09:42:54.576Z,16.68
2023-05-15T09:45:56.622Z,16.12
2023-05-15T09:48:59.980Z,16.22
2023-05-15T09:52:03.657Z,16.08
2023-05-15T09:55:07.353Z,16.26
2023-05-15T09:58:13.708Z,16.32
2023-05-15T10:01:19.983Z,16.42
2023-05-15T10:04:21.895Z,16.76
2023-05-15T10:07:32.157Z,16.84
2023-05-15T10:10:34.135Z,16.56
2023-05-15T10:13:37.116Z,16.77
2023-05-15T10:16:41.595Z,17.23
2023-05-15T10:19:56.746Z,17.34
2023-05-15T10:23:04.545Z,17.08
2023-05-15T10:26:14.418Z,16.71
2023-05-15T10:29:19.245Z,16.35
2023-05-15T10:32:22.180Z,16.69
2023-05-15T10:35:25.090Z,16.56
2023-05-15T10:38:29.546Z,16.54
2023-05-15T10:41:33.565Z,16.90
2023-05-15T10:44:35.564Z,17.18
2023-05-15T10:47:39.660Z,17.47
2023-05-15T10:50:41.747Z,17.15
2023-05-15T10:53:45.817Z,16.99
2023-05-15T10:56:52.225Z,16.65
2023-05-15T10:59:54.561Z,17.25
2023-05-15T11:02:58.747Z,17.24
2023-05-15T11:06:11.720Z,16.91
2023-05-15T11:09:40.324Z,17.82
2023-05-15T11:13:01.190Z,17.75
2023-05-15T11:16:04.437Z,17.85
2023-05-15T11:19:22.220Z,17.50
2023-05-15T11:22:31.500Z,17.40
2023-05-15T11:25:35.842Z,17.80
2023-05-15T11:28:44.480Z,17.87
2023-05-15T11:31:46.429Z,17.16
2023-05-15T11:34:50.211Z,17.51
2023-05-15T11:37:54.269Z,17.99
2023-05-15T11:41:02.712Z,18.30
2023-05-15T11:44:05.084Z,18.15
2023-05-15T11:47:10.261Z,18.03
2023-05-15T11:50:12.755Z,17.55
2023-05-15T11:53:15.725Z,17.55
2023-05-15T11:56:20.058Z,17.80
2023-05-15T11:59:22.022Z,17.24
2023-05-15T12:02:24.781Z,17.37
2023-05-15T12:05:26.722Z,17.41
2023-05-15T12:08:32.572Z,16.95
2023-05-15T12:11:36.201Z,17.39
2023-05-15T12:14:40.033Z,17.18
2023-05-15T12:17:43.166Z,17.60
2023-05-15T12:20:46.880Z,17.67
2023-05-15T12:27:00.026Z,17.79
2023-05-15T12:30:03.010Z,17.13
2023-05-15T12:33:07.573Z,17.21
2023-05-15T12:36:09.728Z,17.32
2023-05-15T12:39:11.881Z,17.88
2023-05-15T12:42:17.537Z,18.79
2023-05-15T12:45:20.542Z,18.25
2023-05-15T12:48:22.926Z,17.74
2023-05-15T12:51:24.882Z,17.65
2023-05-15T12:54:26.853Z,17.88
2023-05-15T12:57:30.494Z,18.12
2023-05-15T13:00:34.564Z,17.93
2023-05-15T13:03:36.739Z,17.69
2023-05-15T13:06:46.287Z,17.70
2023-05-15T13:10:02.696Z,17.37
2023-05-15T13:13:06.120Z,17.57
2023-05-15T13:16:18.321Z,17.55
2023-05-15T13:19:21.327Z,17.96
2023-05-15T13:22:23.378Z,17.37
2023-05-15T13:25:25.809Z,17.31
2023-05-15T13:28:29.176Z,17.38
2023-05-15T13:31:32.292Z,17.64
2023-05-15T13:34:34.368Z,17.58
2023-05-15T13:37:36.560Z,18.04
2023-05-15T13:40:38.517Z,18.03
2023-05-15T13:43:41.963Z,18.09
2023-05-15T13:46:44.085Z,18.12
2023-05-15T13:49:46.364Z,18.27
2023-05-15T13:52:48.312Z,17.86
2023-05-15T13:55:50.186Z,17.75
2023-05-15T13:58:53.505Z,17.99
2023-05-15T14:01:55.503Z,18.14
2023-05-15T14:04:57.459Z,18.02
2023-05-15T14:07:59.499Z,17.91
2023-05-15T14:11:01.776Z,17.75
2023-05-15T14:14:07.298Z,17.87
2023-05-15T14:17:09.317Z,17.82
2023-05-15T14:20:11.984Z,17.68
2023-05-15T14:23:13.940Z,18.03
2023-05-15T14:26:16.390Z,17.87
2023-05-15T14:29:19.806Z,17.92
2023-05-15T14:32:21.769Z,18.10
2023-05-15T14:35:23.696Z,17.89
2023-05-15T14:38:25.666Z,17.92
2023-05-15T14:41:27.933Z,17.75
2023-05-15T14:44:31.206Z,17.65
2023-05-15T14:47:33.920Z,17.58
2023-05-15T14:50:35.826Z,17.55
2023-05-15T14:53:39.190Z,17.71
2023-05-15T14:56:41.122Z,17.42
2023-05-15T14:59:44.416Z,17.35
2023-05-15T15:02:46.615Z,17.38
2023-05-15T15:05:48.851Z,17.30
2023-05-15T15:08:51.118Z,17.53
2023-05-15T15:11:53.123Z,17.42
2023-05-15T15:14:56.489Z,17.36
2023-05-15T15:17:58.943Z,18.00
2023-05-15T15:21:00.982Z,17.56
2023-05-15T15:24:02.898Z,18.17
2023-05-15T15:27:05.165Z,17.83
2023-05-15T15:30:10.272Z,17.96
2023-05-15T15:33:12.129Z,17.70
2023-05-15T15:36:14.045Z,17.52
2023-05-15T15:39:17.591Z,17.68
2023-05-15T15:42:19.533Z,17.83
2023-05-15T15:45:23.001Z,17.44
2023-05-15T15:48:24.934Z,17.64
2023-05-15T15:51:26.965Z,17.48
2023-05-15T15:54:29.129Z,17.66
2023-05-15T15:57:31.397Z,17.51
2023-05-15T16:00:37.258Z,17.67
2023-05-15T16:03:39.330Z,17.39
2023-05-15T16:06:41.533Z,17.71
2023-05-15T16:09:43.572Z,17.26
2023-05-15T16:12:45.855Z,17.41
2023-05-15T16:15:49.214Z,16.85
2023-05-15T16:18:56.613Z,16.81
2023-05-15T16:21:58.593Z,16.88
2023-05-15T16:25:00.653Z,16.72
2023-05-15T16:28:02.554Z,16.73
2023-05-15T16:31:06.074Z,16.62
2023-05-15T16:34:08.712Z,16.56
2023-05-15T16:37:10.788Z,16.54
2023-05-15T16:40:13.403Z,16.57
2023-05-15T16:43:15.578Z,16.48
2023-05-15T16:46:19.162Z,16.48
2023-05-15T16:49:21.186Z,16.52
2023-05-15T16:52:23.147Z,16.53
2023-05-15T16:55:25.427Z,16.46
2023-05-15T16:58:27.423Z,16.30
2023-05-15T17:01:30.853Z,16.59
2023-05-15T17:04:35.345Z,16.13
2023-05-15T17:07:38.132Z,16.30
2023-05-15T17:10:42.026Z,16.12
2023-05-15T17:13:43.974Z,15.98
2023-05-15T17:16:47.667Z,15.91
2023-05-15T17:19:49.695Z,15.75
2023-05-15T17:22:51.671Z,15.47
2023-05-15T17:25:53.773Z,15.52
2023-05-15T17:28:55.709Z,15.48
2023-05-15T17:31:59.120Z,15.25
2023-05-15T17:35:01.153Z,15.29
2023-05-15T17:38:03.245Z,15.18
2023-05-15T17:41:07.001Z,15.00
2023-05-15T17:44:09.180Z,14.98
2023-05-15T17:47:12.768Z,15.04
2023-05-15T17:50:14.938Z,15.20
2023-05-15T17:53:16.937Z,14.84
2023-05-15T17:56:19.049Z,14.58
2023-05-15T17:59:21.022Z,14.60
2023-05-15T18:02:24.395Z,14.42
2023-05-15T18:05:27.800Z,14.35
2023-05-15T18:08:30.314Z,14.62
2023-05-15T18:11:32.325Z,14.56
2023-05-15T18:14:34.393Z,14.35
2023-05-15T18:17:37.801Z,14.39
2023-05-15T18:20:39.803Z,14.67
2023-05-15T18:23:41.868Z,14.30
2023-05-15T18:26:43.863Z,14.30
2023-05-15T18:30:00.896Z,14.05
2023-05-15T18:33:04.733Z,14.13
2023-05-15T18:36:15.057Z,14.34
2023-05-15T18:39:17.250Z,13.92
2023-05-15T18:42:34.903Z,14.08
2023-05-15T18:45:37.840Z,14.19
2023-05-15T18:53:15.390Z,13.82
2023-05-15T18:56:42.455Z,13.99
2023-05-15T19:00:10.564Z,13.84
2023-05-15T19:03:24.724Z,13.70
2023-05-15T19:06:46.797Z,13.80
2023-05-15T19:10:08.841Z,13.77
2023-05-15T19:17:13.454Z,13.68
2023-05-15T19:24:51.879Z,13.85
2023-05-15T19:32:34.950Z,13.60
2023-05-15T19:45:53.588Z,13.75
2023-05-15T19:54:03.620Z,13.28
2023-05-15T19:57:11.048Z,13.47
2023-05-15T20:00:24.201Z,13.45
2023-05-15T20:03:33.427Z,13.63
2023-05-15T20:06:49.178Z,14.35
2023-05-15T20:09:51.348Z,14.17
2023-05-15T20:12:58.297Z,14.61
2023-05-15T20:16:00.909Z,14.23
2023-05-15T20:22:21.943Z,14.29
2023-05-15T20:29:21.358Z,14.24
2023-05-15T20:32:23.517Z,14.26
2023-05-15T20:35:31.119Z,14.18
2023-05-15T20:38:34.012Z,14.17
2023-05-15T20:41:37.205Z,14.29
2023-05-15T20:44:43.224Z,13.69
2023-05-15T20:47:45.832Z,13.69
2023-05-15T20:50:48.025Z,13.46
2023-05-15T20:53:51.153Z,13.40
2023-05-15T20:56:53.277Z,13.68
2023-05-15T20:59:58.636Z,13.57
2023-05-15T21:03:00.852Z,13.51
2023-05-15T21:06:03.845Z,13.65
2023-05-15T21:09:10.498Z,13.57
2023-05-15T21:12:14.605Z,13.54
2023-05-15T21:15:18.264Z,13.43
2023-05-15T21:18:20.262Z,13.61
2023-05-15T21:21:22.423Z,13.25
2023-05-15T21:24:24.442Z,13.55
2023-05-15T21:27:26.564Z,13.24
2023-05-15T21:30:33.113Z,13.65
2023-05-15T21:33:40.274Z,13.30
2023-05-15T21:36:42.264Z,13.17
2023-05-15T21:39:46.154Z,13.14
2023-05-15T21:42:48.144Z,13.22
2023-05-15T21:45:54.152Z,13.56
2023-05-15T21:48:57.651Z,13.55
2023-05-15T21:51:59.785Z,13.09
2023-05-15T21:55:02.009Z,13.27
2023-05-15T21:58:04.109Z,13.05
2023-05-15T22:01:07.806Z,13.08
2023-05-15T22:04:10.056Z,13.05
2023-05-15T22:07:30.196Z,13.20
2023-05-15T22:10:32.197Z,13.46
2023-05-15T22:13:40.038Z,13.46
2023-05-15T22:16:51.155Z,13.06
2023-05-15T22:19:54.966Z,13.06
2023-05-15T22:22:57.139Z,13.15
2023-05-15T22:26:00.058Z,13.06
2023-05-15T22:29:02.059Z,13.04
2023-05-15T22:32:06.491Z,13.05
2023-05-15T22:35:09.882Z,13.32
2023-05-15T22:38:12.383Z,13.27
2023-05-15T22:41:14.465Z,13.11
2023-05-15T22:44:16.585Z,13.13
2023-05-15T22:47:20.015Z,13.21
2023-05-15T22:50:24.462Z,13.07
2023-05-15T22:53:26.634Z,13.31
2023-05-15T22:56:28.697Z,13.13
2023-05-15T22:59:30.840Z,13.12
2023-05-15T23:02:34.420Z,12.99
2023-05-15T23:05:36.579Z,13.04
2023-05-15T23:08:38.604Z,13.05
2023-05-15T23:11:40.558Z,12.96
2023-05-15T23:14:42.519Z,13.16
2023-05-15T23:17:45.993Z,13.40
2023-05-15T23:20:47.994Z,13.02
2023-05-15T23:23:52.504Z,13.38
2023-05-15T23:26:57.758Z,13.25
2023-05-15T23:29:59.837Z,13.20
2023-05-15T23:33:03.335Z,13.04
2023-05-15T23:36:06.264Z,13.44
2023-05-15T23:39:09.438Z,12.99
2023-05-15T23:42:12.519Z,13.25
2023-05-15T23:45:15.143Z,13.65
2023-05-15T23:48:18.532Z,13.81
2023-05-15T23:51:20.637Z,13.73
2023-05-15T23:54:22.595Z,13.72
2023-05-15T23:57:24.617Z,13.53
